Time;durP1;ratioP1;P1;durP2;ratioP2;P2;SDS_P1;SDS_P2;PMS_P1;PMS_P2;Temp;Humidity;BMP_temperature;BMP_pressure;BME280_temperature;BME280_humidity;BME280_pressure;Samples;Min_cycle;Max_cycle;Signal;HPM_P1;HPM_P2
2022/04/29 00:01:56;;;;;;;5.87;2.87;;;6.50;99.90;;;;;;5042766;28;20182;-66
2022/04/29 00:04:23;;;;;;;4.17;2.80;;;6.50;99.90;;;;;;5043653;28;20277;-66
2022/04/29 00:06:49;;;;;;;4.03;2.40;;;6.50;99.90;;;;;;5043536;28;20186;-66
2022/04/29 00:09:14;;;;;;;3.53;2.60;;;6.40;99.90;;;;;;5043704;28;20217;-68
2022/04/29 00:11:40;;;;;;;3.73;2.77;;;6.30;99.90;;;;;;5043991;28;20209;-68
2022/04/29 00:14:06;;;;;;;5.77;2.60;;;6.30;99.90;;;;;;5043578;28;20633;-68
2022/04/29 00:16:32;;;;;;;5.93;2.50;;;6.20;99.90;;;;;;5042941;28;20192;-67
2022/04/29 00:18:57;;;;;;;3.53;2.60;;;6.30;99.90;;;;;;5044135;28;20202;-68
2022/04/29 00:21:23;;;;;;;6.27;2.83;;;6.40;99.90;;;;;;5043858;28;20620;-66
2022/04/29 00:23:49;;;;;;;3.03;2.57;;;6.30;99.90;;;;;;5044258;28;20174;-65
2022/04/29 00:26:15;;;;;;;4.83;2.70;;;6.40;99.90;;;;;;5043382;28;20193;-68
2022/04/29 00:28:41;;;;;;;2.43;2.23;;;6.30;99.90;;;;;;5043649;28;20236;-68
2022/04/29 00:31:06;;;;;;;3.00;2.30;;;6.30;99.90;;;;;;5042993;28;20195;-67
2022/04/29 00:33:32;;;;;;;5.43;2.60;;;6.20;99.90;;;;;;5046307;28;20193;-66
2022/04/29 00:35:57;;;;;;;3.47;2.70;;;6.10;99.90;;;;;;5047686;28;20201;-67
2022/04/29 00:38:23;;;;;;;3.83;2.50;;;6.20;99.90;;;;;;5046700;28;20186;-66
2022/04/29 00:40:49;;;;;;;6.43;2.80;;;6.20;99.90;;;;;;5046465;28;20221;-66
2022/04/29 00:43:14;;;;;;;2.43;2.13;;;6.30;99.90;;;;;;5047202;28;20194;-69
2022/04/29 00:45:40;;;;;;;4.80;2.17;;;6.20;99.90;;;;;;5047328;28;20196;-66
2022/04/29 00:48:08;;;;;;;7.47;2.60;;;6.20;99.90;;;;;;5046263;28;20235;-66
2022/04/29 00:50:35;;;;;;;3.40;2.70;;;6.10;99.90;;;;;;5047397;28;20210;-67
2022/04/29 00:53:02;;;;;;;2.83;2.20;;;6.00;99.90;;;;;;5047436;28;20650;-68
2022/04/29 00:55:34;;;;;;;3.50;2.40;;;6.00;99.90;;;;;;5047243;28;20280;-68
2022/04/29 00:58:12;;;;;;;5.63;2.27;;;6.00;99.90;;;;;;5044738;28;20196;-68
2022/04/29 01:00:38;;;;;;;3.20;2.43;;;6.10;99.90;;;;;;5047018;28;20210;-68
2022/04/29 01:03:05;;;;;;;3.90;2.43;;;6.10;99.90;;;;;;5046898;28;20193;-66
2022/04/29 01:05:33;;;;;;;4.67;2.40;;;6.10;99.90;;;;;;5047372;28;20190;-66
2022/04/29 01:07:59;;;;;;;3.93;2.77;;;6.00;99.90;;;;;;5046186;28;20645;-66
2022/04/29 01:10:25;;;;;;;5.00;2.30;;;6.00;99.90;;;;;;5046765;28;20824;-68
2022/04/29 01:12:55;;;;;;;4.80;3.30;;;6.00;99.90;;;;;;5046964;28;20193;-66
2022/04/29 01:15:20;;;;;;;3.60;2.50;;;5.90;99.90;;;;;;5046772;28;20190;-66
2022/04/29 01:17:48;;;;;;;5.50;3.13;;;5.80;99.90;;;;;;5045952;28;20648;-69
2022/04/29 01:20:16;;;;;;;5.40;2.90;;;5.80;99.90;;;;;;5046791;28;20264;-67
2022/04/29 01:22:43;;;;;;;3.90;2.70;;;5.80;99.90;;;;;;5046909;28;20273;-68
2022/04/29 01:25:09;;;;;;;4.50;2.80;;;5.90;99.90;;;;;;5046508;28;20190;-68
2022/04/29 01:27:34;;;;;;;3.40;2.57;;;6.00;99.90;;;;;;5045658;28;20195;-68
2022/04/29 01:30:06;;;;;;;3.60;2.60;;;5.90;99.90;;;;;;5046624;28;20687;-67
2022/04/29 01:32:32;;;;;;;3.13;2.73;;;5.80;99.90;;;;;;5046794;28;20648;-68
2022/04/29 01:34:59;;;;;;;3.20;2.80;;;5.80;99.90;;;;;;5046829;28;20190;-67
2022/04/29 01:37:25;;;;;;;3.17;2.63;;;5.80;99.90;;;;;;5045690;28;20194;-68
2022/04/29 01:39:50;;;;;;;4.17;2.73;;;5.70;99.90;;;;;;5046017;28;20276;-68
2022/04/29 01:42:16;;;;;;;5.50;3.10;;;5.50;99.90;;;;;;5046913;28;20190;-68
2022/04/29 01:44:42;;;;;;;5.63;3.10;;;5.50;99.90;;;;;;5045647;28;20186;-68
2022/04/29 01:47:07;;;;;;;3.20;2.80;;;5.40;99.90;;;;;;5043970;28;20254;-69
2022/04/29 01:49:33;;;;;;;3.23;2.70;;;5.40;99.90;;;;;;5046406;28;20221;-68
2022/04/29 01:52:00;;;;;;;3.00;2.70;;;5.60;99.90;;;;;;5044718;28;20190;-68
2022/04/29 01:54:25;;;;;;;5.13;3.00;;;5.50;99.90;;;;;;5046432;28;20197;-66
2022/04/29 01:56:53;;;;;;;3.90;2.70;;;5.40;99.90;;;;;;5045106;28;20198;-67
2022/04/29 01:59:19;;;;;;;3.27;2.70;;;5.40;99.90;;;;;;5045575;28;20213;-69
2022/04/29 02:01:46;;;;;;;3.53;2.40;;;5.40;99.90;;;;;;5045940;28;20649;-65
2022/04/29 02:04:12;;;;;;;2.87;2.57;;;5.40;99.90;;;;;;5045760;28;20235;-68
2022/04/29 02:06:38;;;;;;;3.20;2.50;;;5.30;99.90;;;;;;5045355;28;20186;-68
2022/04/29 02:09:07;;;;;;;4.87;2.93;;;5.30;99.90;;;;;;5044160;28;20202;-66
2022/04/29 02:11:34;;;;;;;4.73;2.97;;;5.20;99.90;;;;;;5045825;28;20209;-67
2022/04/29 02:14:00;;;;;;;3.43;2.93;;;5.30;99.90;;;;;;5045977;28;20183;-68
2022/04/29 02:16:26;;;;;;;4.43;2.57;;;5.30;99.90;;;;;;5045385;28;20606;-65
2022/04/29 02:18:52;;;;;;;5.73;2.80;;;5.20;99.90;;;;;;5045223;28;20242;-69
2022/04/29 02:21:17;;;;;;;3.77;2.17;;;5.20;99.90;;;;;;5045651;28;20217;-66
2022/04/29 02:23:43;;;;;;;3.43;2.30;;;5.20;99.90;;;;;;5045388;28;20190;-66
2022/04/29 02:26:09;;;;;;;4.33;2.30;;;5.10;99.90;;;;;;5044991;28;20630;-69
2022/04/29 02:28:35;;;;;;;2.33;1.90;;;5.20;99.90;;;;;;5044978;28;20254;-68
2022/04/29 02:31:01;;;;;;;6.27;2.43;;;5.20;99.90;;;;;;5045445;28;20562;-68
2022/04/29 02:33:30;;;;;;;3.63;2.10;;;5.30;99.90;;;;;;5043571;28;20201;-70
2022/04/29 02:35:56;;;;;;;3.50;2.00;;;5.30;99.90;;;;;;5044086;28;20182;-65
2022/04/29 02:38:22;;;;;;;3.90;2.27;;;5.30;99.90;;;;;;5045260;28;20692;-66
2022/04/29 02:40:50;;;;;;;2.77;2.40;;;5.30;99.90;;;;;;5043500;28;20209;-66
2022/04/29 02:43:19;;;;;;;2.27;1.83;;;5.30;99.90;;;;;;5045362;28;20262;-68
2022/04/29 02:45:46;;;;;;;4.80;2.30;;;5.30;99.90;;;;;;5045052;28;20188;-67
2022/04/29 02:48:15;;;;;;;4.23;2.30;;;5.30;99.90;;;;;;5043989;28;20541;-68
2022/04/29 02:50:40;;;;;;;2.77;1.97;;;5.20;99.90;;;;;;5045254;28;20269;-68
2022/04/29 02:53:06;;;;;;;2.73;2.33;;;5.30;99.90;;;;;;5044785;28;20281;-68
2022/04/29 02:55:32;;;;;;;3.30;2.13;;;5.30;99.90;;;;;;5043724;28;20659;-64
2022/04/29 02:57:57;;;;;;;4.47;2.20;;;5.30;99.90;;;;;;5043320;28;20696;-69
2022/04/29 03:00:23;;;;;;;3.40;2.53;;;5.20;99.90;;;;;;5044846;28;20214;-69
2022/04/29 03:02:48;;;;;;;4.43;2.20;;;5.40;99.90;;;;;;5043293;28;20268;-68
2022/04/29 03:05:14;;;;;;;3.30;2.30;;;5.40;99.90;;;;;;5044977;28;20607;-68
2022/04/29 03:07:40;;;;;;;2.67;2.40;;;5.40;99.90;;;;;;5042380;28;20186;-67
2022/04/29 03:10:05;;;;;;;3.17;2.40;;;5.40;99.90;;;;;;5044249;28;20264;-68
2022/04/29 03:12:31;;;;;;;4.47;2.00;;;5.30;99.90;;;;;;5044524;28;20190;-67
2022/04/29 03:15:15;;;;;;;2.90;2.23;;;5.30;99.90;;;;;;5044649;28;20178;-67
2022/04/29 03:20:26;;;;;;;4.20;2.27;;;5.20;99.90;;;;;;5044134;28;20712;-70
2022/04/29 03:22:52;;;;;;;3.90;2.10;;;5.20;99.90;;;;;;5043531;28;20184;-68
2022/04/29 03:25:18;;;;;;;4.53;2.27;;;5.30;99.90;;;;;;5044149;28;20188;-66
2022/04/29 03:27:43;;;;;;;4.70;2.10;;;5.20;99.90;;;;;;5043707;28;20190;-66
2022/04/29 03:30:10;;;;;;;5.57;2.27;;;5.30;99.90;;;;;;5044264;28;20567;-66
2022/04/29 03:32:35;;;;;;;5.30;2.17;;;5.30;99.90;;;;;;5042855;28;20619;-67
2022/04/29 03:35:01;;;;;;;2.43;2.23;;;5.40;99.90;;;;;;5044357;28;20293;-68
2022/04/29 03:37:26;;;;;;;4.10;2.43;;;5.30;99.90;;;;;;5042172;28;21317;-66
2022/04/29 03:39:53;;;;;;;2.73;1.97;;;5.40;99.90;;;;;;5043708;28;20308;-67
2022/04/29 03:42:19;;;;;;;5.23;2.30;;;5.30;99.90;;;;;;5044334;28;20181;-66
2022/04/29 03:44:45;;;;;;;3.67;2.20;;;5.30;99.90;;;;;;5044616;28;20182;-66
2022/04/29 03:47:11;;;;;;;4.40;2.57;;;5.20;99.90;;;;;;5043602;28;20201;-67
2022/04/29 03:49:36;;;;;;;4.37;2.37;;;5.20;99.90;;;;;;5043970;28;20216;-68
2022/04/29 03:52:03;;;;;;;2.73;1.93;;;5.00;99.90;;;;;;5043956;28;20208;-66
2022/04/29 03:54:29;;;;;;;3.57;2.10;;;5.00;99.90;;;;;;5045005;28;20213;-69
2022/04/29 03:56:55;;;;;;;2.57;1.90;;;5.00;99.90;;;;;;5043403;28;20174;-68
2022/04/29 03:59:21;;;;;;;2.67;1.97;;;5.00;99.90;;;;;;5043670;28;20583;-67
2022/04/29 04:01:46;;;;;;;2.70;2.50;;;5.10;99.90;;;;;;5043870;28;20188;-69
2022/04/29 04:04:12;;;;;;;4.27;2.30;;;5.10;99.90;;;;;;5043680;28;20178;-67
2022/04/29 04:06:50;;;;;;;3.40;2.20;;;5.20;99.90;;;;;;5043542;28;20193;-68
2022/04/29 04:09:21;;;;;;;3.53;2.43;;;5.20;99.90;;;;;;5048211;28;20575;-68
2022/04/29 04:11:48;;;;;;;4.07;2.07;;;5.30;99.90;;;;;;5048730;28;20182;-66
2022/04/29 04:14:15;;;;;;;9.80;2.90;;;5.40;99.90;;;;;;5048043;28;20232;-67
2022/04/29 04:16:41;;;;;;;3.03;2.03;;;5.30;99.90;;;;;;5047654;28;20190;-67
2022/04/29 04:19:06;;;;;;;4.20;2.27;;;5.40;99.90;;;;;;5047986;28;20228;-68
2022/04/29 04:21:32;;;;;;;3.20;2.30;;;5.50;99.90;;;;;;5048239;28;20185;-67
2022/04/29 04:23:58;;;;;;;2.33;2.10;;;5.40;99.90;;;;;;5048328;28;20559;-66
2022/04/29 04:26:23;;;;;;;3.53;2.37;;;5.40;99.90;;;;;;5047249;28;20645;-66
2022/04/29 04:28:49;;;;;;;3.03;2.20;;;5.30;99.90;;;;;;5047701;28;20673;-68
2022/04/29 04:31:15;;;;;;;3.00;2.30;;;5.50;99.90;;;;;;5048072;28;20693;-65
2022/04/29 04:33:40;;;;;;;2.97;2.07;;;5.40;99.90;;;;;;5048226;28;20190;-69
2022/04/29 04:36:06;;;;;;;2.63;2.37;;;5.40;99.90;;;;;;5048001;28;20243;-69
2022/04/29 04:38:32;;;;;;;4.20;2.27;;;5.30;99.90;;;;;;5046867;28;20174;-65
2022/04/29 04:40:59;;;;;;;4.10;2.27;;;5.30;99.90;;;;;;5047633;28;20214;-68
2022/04/29 04:43:27;;;;;;;2.60;2.40;;;5.50;99.90;;;;;;5047667;28;20197;-67
2022/04/29 04:45:53;;;;;;;2.90;2.17;;;5.50;99.90;;;;;;5047768;28;20356;-68
2022/04/29 04:48:20;;;;;;;2.80;2.13;;;5.50;99.90;;;;;;5046680;28;20667;-65
2022/04/29 04:50:46;;;;;;;3.17;2.33;;;5.60;99.90;;;;;;5046750;28;20656;-68
2022/04/29 04:53:12;;;;;;;3.70;2.63;;;5.90;99.90;;;;;;5044721;28;20183;-67
2022/04/29 04:55:39;;;;;;;3.47;2.03;;;5.90;99.90;;;;;;5047574;28;20247;-63
2022/04/29 04:58:05;;;;;;;4.23;2.33;;;6.00;99.90;;;;;;5046296;28;20277;-67
2022/04/29 05:00:31;;;;;;;6.20;2.80;;;6.00;99.90;;;;;;5047518;28;20220;-67
2022/04/29 05:02:57;;;;;;;3.00;2.20;;;6.10;99.90;;;;;;5047772;28;20182;-69
2022/04/29 05:05:23;;;;;;;5.37;2.40;;;6.20;99.90;;;;;;5047224;28;20182;-66
2022/04/29 05:07:48;;;;;;;5.93;2.20;;;6.20;99.90;;;;;;5046517;28;20196;-69
2022/04/29 05:10:14;;;;;;;3.13;2.10;;;6.20;99.90;;;;;;5045332;28;20720;-66
2022/04/29 05:12:45;;;;;;;4.40;2.80;;;6.20;99.90;;;;;;5025716;28;20216;-68
2022/04/29 05:15:12;;;;;;;4.07;2.80;;;6.20;99.90;;;;;;5044605;28;20214;-67
2022/04/29 05:17:41;;;;;;;4.17;2.90;;;6.20;99.90;;;;;;5045930;28;20504;-68
2022/04/29 05:20:10;;;;;;;2.70;2.50;;;6.30;99.90;;;;;;5044047;28;20213;-66
2022/04/29 05:22:37;;;;;;;7.53;3.07;;;6.30;99.90;;;;;;5045800;28;20224;-67
2022/04/29 05:25:04;;;;;;;5.03;3.37;;;6.40;99.90;;;;;;5027443;28;20247;-66
2022/04/29 05:27:30;;;;;;;5.70;3.70;;;6.50;99.90;;;;;;5043813;28;20187;-69
2022/04/29 05:29:57;;;;;;;4.27;2.83;;;6.50;99.90;;;;;;5044862;28;20236;-69
2022/04/29 05:32:25;;;;;;;3.60;3.10;;;6.50;99.90;;;;;;5044792;28;20186;-68
2022/04/29 05:34:51;;;;;;;5.43;2.80;;;6.60;99.90;;;;;;5044364;28;20189;-69
2022/04/29 05:37:17;;;;;;;4.70;3.00;;;6.70;99.90;;;;;;5045900;28;20644;-71
2022/04/29 05:42:27;;;;;;;2.73;2.20;;;7.10;99.90;;;;;;5045862;28;20232;-69
2022/04/29 05:44:53;;;;;;;3.10;2.47;;;7.50;99.90;;;;;;5044446;28;20190;-68
2022/04/29 05:47:19;;;;;;;4.00;2.53;;;8.30;99.90;;;;;;5045761;28;20273;-69
2022/04/29 05:49:45;;;;;;;3.13;2.40;;;9.10;99.90;;;;;;5046532;28;20206;-68
2022/04/29 05:52:11;;;;;;;3.07;2.23;;;10.00;99.90;;;;;;5046463;28;20999;-68
2022/04/29 05:54:36;;;;;;;3.30;2.00;;;11.10;99.90;;;;;;5045017;28;20219;-68
2022/04/29 05:57:03;;;;;;;5.32;2.30;;;11.90;99.90;;;;;;5045878;28;20190;-71
2022/04/29 05:59:30;;;;;;;3.47;2.25;;;12.60;99.90;;;;;;5044599;28;20737;-71
2022/04/29 06:01:55;;;;;;;6.50;2.88;;;13.00;99.90;;;;;;5046594;28;20560;-71
2022/04/29 06:04:21;;;;;;;3.88;2.13;;;13.00;99.90;;;;;;5046415;28;20179;-69
2022/04/29 06:06:48;;;;;;;6.10;2.30;;;13.20;99.90;;;;;;5045439;28;20692;-70
2022/04/29 06:09:13;;;;;;;3.25;2.28;;;12.90;99.90;;;;;;5045783;28;20277;-70
2022/04/29 06:11:39;;;;;;;5.07;2.53;;;12.50;99.90;;;;;;5046017;28;20270;-71
2022/04/29 06:14:05;;;;;;;4.57;2.60;;;12.00;99.90;;;;;;5046031;28;20190;-69
2022/04/29 06:16:31;;;;;;;14.52;3.10;;;11.60;99.90;;;;;;5045410;28;20183;-68
2022/04/29 06:18:56;;;;;;;6.53;4.10;;;11.20;99.90;;;;;;5045772;28;20209;-68
2022/04/29 06:21:22;;;;;;;7.50;3.53;;;11.00;99.90;;;;;;5045476;28;20791;-69
2022/04/29 06:23:49;;;;;;;10.07;3.50;;;10.70;99.90;;;;;;5045769;28;20669;-68
2022/04/29 06:26:15;;;;;;;6.05;2.85;;;10.40;99.90;;;;;;5045267;28;20186;-69
2022/04/29 06:28:41;;;;;;;5.05;3.05;;;10.10;99.90;;;;;;5045717;28;20206;-70
2022/04/29 06:31:07;;;;;;;3.40;3.00;;;10.10;99.90;;;;;;5045361;28;20194;-71
2022/04/29 06:33:33;;;;;;;6.07;3.43;;;10.20;99.90;;;;;;5045595;28;20209;-69
2022/04/29 06:36:01;;;;;;;4.33;3.17;;;10.20;99.90;;;;;;5045646;28;20679;-69
2022/04/29 06:38:27;;;;;;;5.23;3.17;;;10.10;99.90;;;;;;5043910;28;20189;-69
2022/04/29 06:40:53;;;;;;;10.50;2.97;;;10.10;99.90;;;;;;5045198;28;20416;-69
2022/04/29 06:43:20;;;;;;;5.67;3.10;;;10.20;99.90;;;;;;5045460;28;20269;-69
2022/04/29 06:45:46;;;;;;;3.93;2.93;;;10.40;99.90;;;;;;5045004;28;20708;-69
2022/04/29 06:48:11;;;;;;;4.53;2.60;;;10.40;99.90;;;;;;5044791;28;20257;-70
2022/04/29 06:50:37;;;;;;;5.77;2.80;;;10.50;99.90;;;;;;5043221;28;20571;-69
2022/04/29 06:53:03;;;;;;;4.10;3.00;;;10.60;99.90;;;;;;5043633;28;20190;-68
2022/04/29 06:55:29;;;;;;;3.87;2.83;;;10.70;99.90;;;;;;5043911;28;20182;-70
2022/04/29 06:57:54;;;;;;;4.63;3.30;;;10.60;99.90;;;;;;5043729;28;20604;-69
2022/04/29 07:00:20;;;;;;;4.57;2.70;;;10.60;99.90;;;;;;5044682;28;20259;-69
2022/04/29 07:02:46;;;;;;;4.63;3.03;;;10.70;99.90;;;;;;5045370;28;20549;-68
2022/04/29 07:05:12;;;;;;;4.43;3.00;;;10.60;99.90;;;;;;5044592;28;20189;-68
2022/04/29 07:07:38;;;;;;;4.67;3.03;;;10.50;99.90;;;;;;5043984;28;20186;-69
2022/04/29 07:10:05;;;;;;;7.63;3.43;;;10.50;99.90;;;;;;5044407;28;20210;-68
2022/04/29 07:12:33;;;;;;;6.40;3.40;;;10.70;99.90;;;;;;5044776;28;20221;-70
2022/04/29 07:14:59;;;;;;;6.17;3.50;;;10.90;99.90;;;;;;5041997;28;20207;-69
2022/04/29 07:17:25;;;;;;;5.47;3.60;;;10.90;99.90;;;;;;5042515;28;20201;-70
2022/04/29 07:19:51;;;;;;;6.63;3.50;;;10.90;99.90;;;;;;5044139;28;20574;-70
2022/04/29 07:22:17;;;;;;;6.65;3.63;;;10.90;99.90;;;;;;5044305;28;20181;-69
2022/04/29 07:24:43;;;;;;;4.97;3.13;;;10.80;99.90;;;;;;5044342;28;20186;-68
2022/04/29 07:27:08;;;;;;;4.90;3.07;;;10.70;99.90;;;;;;5043817;28;20189;-67
2022/04/29 07:29:34;;;;;;;5.03;3.47;;;10.80;99.90;;;;;;5044386;28;20214;-70
2022/04/29 07:32:00;;;;;;;5.70;3.13;;;11.00;99.90;;;;;;5043827;28;20186;-70
2022/04/29 07:41:44;;;;;;;4.90;3.50;;;11.40;99.90;;;;;;5042946;28;20312;-69
2022/04/29 07:42:39;;;;;;;4.22;2.97;;;12.10;99.90;;;;;;5042269;28;20671;-68
2022/04/29 07:45:05;;;;;;;5.13;3.50;;;12.00;99.90;;;;;;5043316;28;20182;-70
2022/04/29 07:47:31;;;;;;;3.90;3.05;;;12.30;99.90;;;;;;5042680;28;20222;-70
2022/04/29 07:49:56;;;;;;;5.22;3.00;;;12.70;99.90;;;;;;5040091;28;20293;-71
2022/04/29 07:52:22;;;;;;;3.75;3.10;;;13.10;99.90;;;;;;5043371;28;20632;-68
2022/04/29 07:54:48;;;;;;;3.70;3.10;;;13.30;99.90;;;;;;5041576;28;20263;-66
2022/04/29 07:57:14;;;;;;;4.90;3.03;;;13.30;99.90;;;;;;5038547;28;20251;-70
2022/04/29 07:59:40;;;;;;;3.83;3.10;;;13.10;99.90;;;;;;5041372;28;20770;-68
2022/04/29 08:02:06;;;;;;;5.05;3.15;;;12.60;99.90;;;;;;5042928;28;20261;-68
2022/04/29 08:04:32;;;;;;;4.55;3.40;;;12.80;99.90;;;;;;5043270;28;20170;-67
2022/04/29 08:06:58;;;;;;;7.13;4.05;;;12.90;99.90;;;;;;5041741;28;20548;-69
2022/04/29 08:09:23;;;;;;;7.43;3.90;;;13.00;99.90;;;;;;5043171;28;20634;-69
2022/04/29 08:11:49;;;;;;;5.60;3.38;;;13.10;99.90;;;;;;5043267;28;20193;-70
2022/04/29 08:14:15;;;;;;;4.32;3.20;;;13.20;99.90;;;;;;5043526;28;20657;-66
2022/04/29 08:16:41;;;;;;;4.75;3.55;;;13.10;99.90;;;;;;5042964;28;20653;-70
2022/04/29 08:19:08;;;;;;;4.97;3.30;;;12.90;99.90;;;;;;5042023;28;20237;-69
2022/04/29 08:21:34;;;;;;;5.80;3.67;;;13.00;99.90;;;;;;5043740;28;20198;-70
2022/04/29 08:24:02;;;;;;;5.30;3.30;;;13.00;99.90;;;;;;5043350;28;20188;-67
2022/04/29 08:26:28;;;;;;;7.35;3.70;;;13.30;99.90;;;;;;5042890;28;20178;-69
2022/04/29 08:28:54;;;;;;;8.48;3.70;;;13.40;99.90;;;;;;5043016;28;20225;-70
2022/04/29 08:31:21;;;;;;;4.72;4.03;;;13.60;99.90;;;;;;5043606;28;20193;-68
2022/04/29 08:33:46;;;;;;;6.70;3.92;;;13.50;99.90;;;;;;5043394;28;20186;-68
2022/04/29 08:36:12;;;;;;;8.32;4.28;;;12.90;99.90;;;;;;5042718;28;20571;-69
2022/04/29 08:38:38;;;;;;;6.90;3.83;;;13.10;99.90;;;;;;5042724;28;20316;-70
2022/04/29 08:41:06;;;;;;;7.93;3.75;;;13.10;99.90;;;;;;5042864;28;20216;-70
2022/04/29 08:43:33;;;;;;;6.78;3.92;;;13.20;99.90;;;;;;5043375;28;20687;-70
2022/04/29 08:46:00;;;;;;;6.13;4.10;;;13.20;99.90;;;;;;5043376;28;20265;-70
2022/04/29 08:48:28;;;;;;;9.50;4.60;;;13.50;99.90;;;;;;5042282;28;20190;-68
2022/04/29 08:50:56;;;;;;;5.13;3.58;;;13.90;99.90;;;;;;5043042;28;20224;-71
2022/04/29 08:53:22;;;;;;;9.20;4.25;;;14.10;99.90;;;;;;5043700;28;20649;-69
2022/04/29 08:58:37;;;;;;;4.97;3.70;;;14.70;99.90;;;;;;5046003;28;20185;-69
2022/04/29 09:01:09;;;;;;;5.80;3.80;;;15.10;99.90;;;;;;5046708;28;20210;-69
2022/04/29 09:03:36;;;;;;;6.22;3.90;;;14.90;99.90;;;;;;5046786;28;20182;-69
2022/04/29 09:06:04;;;;;;;6.93;4.03;;;15.10;99.90;;;;;;5046691;28;20272;-70
2022/04/29 09:08:37;;;;;;;15.80;4.70;;;15.20;99.90;;;;;;5045795;28;20719;-67
2022/04/29 09:11:05;;;;;;;6.05;4.13;;;15.30;99.90;;;;;;5046529;28;20186;-68
2022/04/29 09:13:32;;;;;;;4.38;3.65;;;15.30;99.90;;;;;;5046782;28;20269;-67
2022/04/29 09:16:04;;;;;;;4.15;3.40;;;15.20;99.90;;;;;;5046638;28;20265;-69
2022/04/29 09:18:43;;;;;;;6.07;3.97;;;15.30;99.90;;;;;;5045667;28;20194;-70
2022/04/29 09:21:14;;;;;;;6.63;4.00;;;15.60;99.90;;;;;;5046486;28;20626;-67
2022/04/29 09:23:43;;;;;;;4.68;3.35;;;15.80;99.90;;;;;;5044855;28;20721;-68
2022/04/29 09:26:25;;;;;;;7.07;4.00;;;15.90;99.90;;;;;;5046170;28;20194;-70
2022/04/29 09:29:15;;;;;;;5.28;3.80;;;15.70;99.90;;;;;;5045748;28;20206;-70
2022/04/29 09:31:54;;;;;;;4.32;3.92;;;15.70;99.90;;;;;;5040966;28;20198;-69
2022/04/29 09:34:21;;;;;;;5.72;3.78;;;15.70;99.90;;;;;;5046064;28;20182;-70
2022/04/29 09:36:47;;;;;;;7.18;3.75;;;16.00;99.90;;;;;;5046102;28;20190;-71
2022/04/29 09:39:32;;;;;;;6.15;3.80;;;16.20;99.90;;;;;;5043972;28;20565;-70
2022/04/29 09:42:00;;;;;;;5.55;3.90;;;16.10;99.90;;;;;;5046294;28;20198;-68
2022/04/29 09:44:33;;;;;;;7.57;4.05;;;16.30;99.90;;;;;;5046173;28;20196;-68
2022/04/29 09:47:20;;;;;;;8.63;3.80;;;16.50;99.90;;;;;;5045269;28;20573;-68
2022/04/29 09:50:01;;;;;;;4.15;3.53;;;16.60;99.90;;;;;;5044428;28;20685;-71
2022/04/29 09:52:30;;;;;;;6.07;4.35;;;16.80;99.90;;;;;;5045794;28;20190;-70
2022/04/29 09:55:14;;;;;;;5.57;3.80;;;17.00;99.90;;;;;;5045711;28;20606;-68
2022/04/29 09:57:48;;;;;;;8.15;3.97;;;17.30;99.90;;;;;;5044657;28;20202;-68
2022/04/29 10:00:14;;;;;;;5.03;3.50;;;17.70;99.90;;;;;;5043973;28;20628;-69
2022/04/29 10:02:41;;;;;;;4.10;3.53;;;17.70;99.90;;;;;;5044587;28;20586;-67
2022/04/29 10:05:07;;;;;;;5.30;3.15;;;17.80;99.90;;;;;;5044826;28;20620;-67
2022/04/29 10:07:34;;;;;;;8.80;3.45;;;17.90;99.90;;;;;;5043636;28;20302;-67
2022/04/29 10:10:02;;;;;;;5.43;2.97;;;18.00;99.10;;;;;;5045286;28;20213;-67
2022/04/29 10:12:29;;;;;;;9.02;3.45;;;18.10;97.50;;;;;;5045363;28;20269;-68
2022/04/29 10:14:59;;;;;;;5.38;2.80;;;18.40;97.40;;;;;;5045576;28;20547;-67
2022/04/29 10:23:08;;;;;;;4.93;3.35;;;18.20;94.60;;;;;;5045360;28;20239;-68
2022/04/29 10:25:35;;;;;;;4.88;3.22;;;18.20;94.10;;;;;;5045331;28;20638;-68
2022/04/29 10:28:03;;;;;;;5.25;3.50;;;18.20;92.80;;;;;;5044331;28;20193;-67
2022/04/29 10:30:36;;;;;;;6.47;3.28;;;18.00;92.70;;;;;;5044952;28;20202;-69
2022/04/29 10:33:10;;;;;;;4.10;3.30;;;18.10;93.20;;;;;;5045108;28;20182;-69
2022/04/29 10:36:00;;;;;;;5.10;3.20;;;18.20;91.70;;;;;;5044005;28;20194;-68
2022/04/29 10:38:31;;;;;;;5.47;2.97;;;18.40;91.90;;;;;;5044053;28;20565;-67
2022/04/29 10:41:19;;;;;;;7.13;3.10;;;18.50;90.30;;;;;;5044601;28;20259;-68
2022/04/29 10:43:47;;;;;;;4.60;2.72;;;18.80;86.10;;;;;;5044695;28;20233;-68
2022/04/29 10:46:32;;;;;;;5.13;2.97;;;18.50;82.00;;;;;;5043967;28;20660;-67
2022/04/29 10:49:18;;;;;;;3.28;2.45;;;18.30;82.10;;;;;;5044243;28;20202;-70
2022/04/29 10:51:49;;;;;;;10.80;2.55;;;18.30;81.60;;;;;;5043627;28;20189;-68
2022/04/29 10:54:33;;;;;;;4.32;2.78;;;18.50;80.70;;;;;;5044272;28;20182;-68
2022/04/29 10:57:07;;;;;;;5.32;2.90;;;18.30;81.40;;;;;;5043750;28;20186;-67
2022/04/29 10:59:54;;;;;;;4.72;2.53;;;18.40;79.10;;;;;;5044467;28;20625;-69
2022/04/29 11:02:25;;;;;;;5.18;2.83;;;18.30;80.90;;;;;;5044399;28;20209;-68
2022/04/29 11:04:50;;;;;;;4.25;2.55;;;18.30;77.60;;;;;;5044368;28;20178;-70
2022/04/29 11:07:41;;;;;;;4.40;2.20;;;18.70;77.20;;;;;;5043811;28;20182;-68
2022/04/29 11:10:10;;;;;;;3.65;2.15;;;18.90;76.60;;;;;;5044111;28;20202;-70
2022/04/29 11:12:39;;;;;;;4.15;2.35;;;19.10;75.00;;;;;;5044499;28;20190;-68
2022/04/29 11:15:16;;;;;;;6.00;2.65;;;19.30;72.00;;;;;;5044256;28;20205;-68
2022/04/29 11:17:42;;;;;;;4.47;2.60;;;19.60;73.30;;;;;;5043257;28;20217;-69
2022/04/29 11:20:20;;;;;;;4.38;2.90;;;19.70;71.10;;;;;;5044058;28;20208;-69
2022/04/29 11:25:57;;;;;;;4.90;3.05;;;18.90;71.90;;;;;;5043869;28;20243;-68
2022/04/29 11:28:24;;;;;;;3.38;2.63;;;19.10;74.60;;;;;;5043015;28;20185;-70
2022/04/29 11:30:59;;;;;;;3.38;2.90;;;19.30;74.20;;;;;;5042773;28;20190;-68
2022/04/29 11:33:24;;;;;;;5.60;3.10;;;19.90;73.40;;;;;;5043937;28;20269;-69
2022/04/29 11:36:10;;;;;;;5.15;2.83;;;19.90;71.70;;;;;;5043935;28;20192;-70
2022/04/29 11:38:47;;;;;;;3.95;2.38;;;20.30;72.20;;;;;;5043665;28;20748;-68
2022/04/29 11:41:31;;;;;;;3.92;2.78;;;20.90;72.30;;;;;;5043310;28;20213;-68
2022/04/29 11:43:57;;;;;;;5.32;2.75;;;20.80;69.40;;;;;;5044302;28;20228;-67
2022/04/29 11:46:23;;;;;;;4.07;2.30;;;20.50;67.80;;;;;;5043428;28;20174;-68
2022/04/29 11:48:54;;;;;;;5.65;2.83;;;20.70;69.50;;;;;;5043880;28;20281;-70
2022/04/29 11:51:20;;;;;;;4.72;3.20;;;20.90;70.80;;;;;;5043411;28;20657;-68
2022/04/29 11:53:59;;;;;;;5.57;3.30;;;20.90;69.90;;;;;;5044199;28;20193;-68
2022/04/29 11:56:39;;;;;;;3.83;2.85;;;20.60;66.90;;;;;;5043150;28;20695;-68
2022/04/29 11:59:07;;;;;;;5.88;3.42;;;20.80;68.40;;;;;;5043324;28;20217;-71
2022/04/29 12:01:33;;;;;;;5.05;3.10;;;20.80;68.50;;;;;;5043891;28;20578;-68
2022/04/29 12:03:59;;;;;;;7.30;2.65;;;20.60;68.70;;;;;;5043779;28;20174;-70
2022/04/29 12:06:25;;;;;;;8.15;3.10;;;20.80;68.80;;;;;;5042049;28;20189;-65
2022/04/29 12:08:50;;;;;;;4.25;3.05;;;20.90;67.80;;;;;;5043875;28;20198;-68
2022/04/29 12:11:30;;;;;;;5.15;3.65;;;20.90;67.00;;;;;;5043809;28;20225;-69
2022/04/29 12:13:56;;;;;;;4.75;2.97;;;20.80;66.60;;;;;;5043817;28;20277;-68
2022/04/29 12:16:22;;;;;;;5.65;3.28;;;21.00;67.40;;;;;;5043186;28;20189;-68
2022/04/29 12:18:49;;;;;;;7.57;3.95;;;21.00;64.80;;;;;;5043793;28;20350;-68
2022/04/29 12:21:25;;;;;;;7.15;3.63;;;20.40;65.90;;;;;;5043353;28;20309;-69
2022/04/29 12:23:52;;;;;;;7.13;3.65;;;20.30;67.50;;;;;;5043540;28;20177;-68
2022/04/29 12:26:18;;;;;;;6.82;3.10;;;19.90;67.20;;;;;;5041890;28;20232;-67
2022/04/29 12:28:53;;;;;;;5.40;3.75;;;20.20;70.60;;;;;;5044391;28;20665;-68
2022/04/29 12:36:53;;;;;;;5.03;3.28;;;21.30;67.80;;;;;;5046200;28;20236;-68
2022/04/29 12:39:26;;;;;;;5.07;2.80;;;21.50;65.40;;;;;;5046512;28;20767;-68
2022/04/29 12:42:03;;;;;;;4.53;3.17;;;21.70;66.40;;;;;;5044673;28;20689;-68
2022/04/29 12:47:40;;;;;;;6.85;3.50;;;21.60;64.80;;;;;;5044940;28;20201;-67
2022/04/29 12:50:15;;;;;;;7.60;3.35;;;21.60;64.90;;;;;;5044754;28;20252;-68
2022/04/29 12:52:59;;;;;;;4.15;3.35;;;21.60;63.30;;;;;;5044534;28;20271;-68
2022/04/29 12:55:26;;;;;;;4.18;2.92;;;20.90;64.10;;;;;;5046482;28;20190;-68
2022/04/29 12:57:51;;;;;;;5.60;3.83;;;20.80;66.00;;;;;;5045961;28;20189;-67
2022/04/29 13:00:26;;;;;;;4.90;3.25;;;20.70;64.80;;;;;;5046084;28;20201;-69
2022/04/29 13:03:10;;;;;;;4.88;3.45;;;21.00;65.20;;;;;;5046502;28;20181;-68
2022/04/29 13:05:37;;;;;;;5.82;3.40;;;20.90;65.70;;;;;;5046467;28;20193;-68
2022/04/29 13:08:04;;;;;;;4.93;3.33;;;20.80;66.60;;;;;;5045876;28;20185;-68
2022/04/29 13:10:40;;;;;;;6.18;3.92;;;20.90;67.50;;;;;;5046537;28;20234;-68
2022/04/29 13:13:05;;;;;;;8.73;3.55;;;20.90;65.10;;;;;;5046255;28;20193;-69
2022/04/29 13:15:33;;;;;;;5.20;3.45;;;20.50;65.30;;;;;;5044978;28;20194;-68
2022/04/29 13:17:59;;;;;;;6.10;4.18;;;20.60;66.50;;;;;;5043787;28;20553;-68
2022/04/29 13:20:26;;;;;;;5.32;2.95;;;20.80;68.40;;;;;;5045565;28;20753;-67
2022/04/29 13:22:53;;;;;;;6.13;3.65;;;20.70;68.40;;;;;;5046708;28;20264;-68
2022/04/29 13:25:18;;;;;;;4.78;3.22;;;20.90;67.90;;;;;;5046226;28;20183;-68
2022/04/29 13:27:44;;;;;;;5.68;3.60;;;21.10;68.80;;;;;;5045619;28;20201;-67